createdAt,value
2018-11-02T00:01:06.846Z,1.80
2018-11-02T00:03:34.907Z,1.70
2018-11-02T00:06:02.992Z,1.83
2018-11-02T00:08:30.974Z,1.60
2018-11-02T00:10:59.040Z,1.70
2018-11-02T00:13:27.098Z,1.50
2018-11-02T00:15:55.146Z,1.50
2018-11-02T00:18:23.223Z,1.30
2018-11-02T00:20:51.262Z,1.60
2018-11-02T00:23:19.315Z,1.07
2018-11-02T00:25:47.390Z,1.20
2018-11-02T00:28:15.447Z,1.40
2018-11-02T00:30:43.498Z,1.27
2018-11-02T00:33:11.548Z,1.23
2018-11-02T00:35:39.591Z,1.40
2018-11-02T00:38:07.635Z,1.30
2018-11-02T00:40:35.682Z,1.57
2018-11-02T00:43:03.741Z,1.57
2018-11-02T00:45:31.795Z,1.33
2018-11-02T00:47:59.859Z,1.43
2018-11-02T00:50:27.903Z,1.53
2018-11-02T00:52:55.971Z,1.77
2018-11-02T00:55:24.023Z,1.53
2018-11-02T00:57:52.178Z,1.67
2018-11-02T01:00:20.275Z,1.60
2018-11-02T01:02:48.305Z,1.83
2018-11-02T01:05:16.352Z,1.67
2018-11-02T01:07:44.407Z,2.07
2018-11-02T01:10:12.466Z,1.90
2018-11-02T01:12:40.518Z,1.60
2018-11-02T01:15:09.847Z,1.90
2018-11-02T01:17:38.003Z,1.60
2018-11-02T01:20:08.054Z,1.50
2018-11-02T01:22:36.119Z,1.50
2018-11-02T01:25:04.178Z,1.70
2018-11-02T01:27:32.255Z,1.07
2018-11-02T01:30:00.311Z,1.37
2018-11-02T01:32:28.382Z,1.10
2018-11-02T01:34:56.448Z,1.20
2018-11-02T01:37:24.490Z,1.20
2018-11-02T01:39:52.554Z,1.33
2018-11-02T01:42:20.884Z,1.37
2018-11-02T01:44:48.940Z,1.17
2018-11-02T01:47:16.995Z,1.10
2018-11-02T01:49:45.082Z,1.30
2018-11-02T01:52:13.114Z,1.20
2018-11-02T01:54:41.164Z,1.23
2018-11-02T01:57:09.207Z,1.33
2018-11-02T01:59:37.274Z,1.37
2018-11-02T02:02:05.327Z,1.00
2018-11-02T02:04:33.431Z,1.00
2018-11-02T02:07:01.482Z,0.90
2018-11-02T02:09:29.555Z,1.20
2018-11-02T02:11:57.730Z,1.10
2018-11-02T02:14:25.816Z,1.10
2018-11-02T02:16:53.882Z,1.00
2018-11-02T02:19:22.159Z,1.40
2018-11-02T02:21:50.226Z,1.70
2018-11-02T02:24:18.311Z,1.33
2018-11-02T02:26:46.358Z,1.40
2018-11-02T02:29:14.412Z,1.47
2018-11-02T02:31:42.734Z,1.70
2018-11-02T02:34:10.794Z,1.50
2018-11-02T02:36:38.874Z,1.60
2018-11-02T02:39:08.063Z,1.70
2018-11-02T02:41:36.337Z,1.90
2018-11-02T02:44:04.567Z,1.73
2018-11-02T02:46:32.635Z,1.73
2018-11-02T02:49:00.694Z,2.00
2018-11-02T02:51:28.767Z,2.30
2018-11-02T02:53:56.814Z,2.10
2018-11-02T02:56:24.877Z,2.13
2018-11-02T02:58:53.374Z,2.20
2018-11-02T03:01:21.442Z,2.07
2018-11-02T03:03:49.490Z,2.17
2018-11-02T03:06:17.575Z,1.83
2018-11-02T03:08:45.618Z,2.20
2018-11-02T03:11:14.016Z,2.13
2018-11-02T03:13:41.918Z,2.00
2018-11-02T03:16:09.991Z,2.00
2018-11-02T03:18:38.037Z,2.27
2018-11-02T03:21:06.103Z,1.93
2018-11-02T03:23:34.139Z,2.43
2018-11-02T03:26:02.195Z,2.33
2018-11-02T03:28:30.267Z,1.90
2018-11-02T03:30:58.390Z,2.00
2018-11-02T03:33:26.387Z,2.00
2018-11-02T03:35:54.490Z,2.20
2018-11-02T03:38:22.556Z,1.77
2018-11-02T03:40:50.615Z,1.80
2018-11-02T03:43:18.688Z,2.10
2018-11-02T03:45:46.741Z,2.00
2018-11-02T03:48:14.798Z,2.13
2018-11-02T03:50:42.862Z,2.20
2018-11-02T03:53:11.124Z,2.00
2018-11-02T03:55:39.190Z,2.00
2018-11-02T03:58:07.267Z,1.50
2018-11-02T04:00:35.319Z,1.83
2018-11-02T04:03:03.382Z,2.10
2018-11-02T04:05:31.452Z,2.07
2018-11-02T04:07:59.490Z,1.97
2018-11-02T04:10:27.554Z,1.80
2018-11-02T04:12:55.617Z,1.90
2018-11-02T04:15:23.710Z,2.07
2018-11-02T04:17:51.795Z,2.20
2018-11-02T04:20:19.854Z,2.20
2018-11-02T04:22:47.993Z,2.63
2018-11-02T04:25:16.003Z,2.17
2018-11-02T04:27:44.079Z,2.80
2018-11-02T04:30:12.162Z,2.40
2018-11-02T04:32:40.243Z,2.10
2018-11-02T04:35:08.775Z,2.10
2018-11-02T04:37:36.846Z,2.20
2018-11-02T04:40:05.889Z,2.00
2018-11-02T04:42:33.967Z,2.00
2018-11-02T04:45:02.043Z,2.07
2018-11-02T04:47:30.128Z,2.40
2018-11-02T04:49:58.171Z,2.17
2018-11-02T04:52:26.641Z,2.07
2018-11-02T04:54:54.694Z,1.90
2018-11-02T04:57:22.754Z,2.23
2018-11-02T04:59:50.842Z,2.03
2018-11-02T05:02:18.920Z,2.20
2018-11-02T05:04:47.016Z,2.10
2018-11-02T05:07:15.062Z,2.37
2018-11-02T05:09:43.167Z,2.30
2018-11-02T05:12:11.174Z,2.20
2018-11-02T05:14:39.245Z,2.43
2018-11-02T05:17:07.286Z,2.10
2018-11-02T05:19:35.368Z,3.47
2018-11-02T05:22:03.426Z,2.90
2018-11-02T05:24:31.499Z,2.90
2018-11-02T05:26:59.567Z,3.13
2018-11-02T05:29:27.667Z,3.10
2018-11-02T05:31:55.734Z,2.80
2018-11-02T05:34:23.818Z,3.07
2018-11-02T05:36:51.892Z,2.90
2018-11-02T05:39:19.991Z,2.90
2018-11-02T05:41:48.011Z,3.00
2018-11-02T05:44:16.112Z,2.67
2018-11-02T05:46:44.175Z,3.27
2018-11-02T05:49:12.243Z,3.20
2018-11-02T05:51:40.300Z,3.13
2018-11-02T05:54:08.411Z,3.30
2018-11-02T05:56:36.398Z,3.23
2018-11-02T05:59:04.501Z,3.17
2018-11-02T06:01:32.554Z,2.70
2018-11-02T06:04:00.611Z,2.63
2018-11-02T06:06:28.663Z,2.83
2018-11-02T06:08:56.756Z,2.80
2018-11-02T06:11:24.794Z,3.37
2018-11-02T06:13:52.847Z,3.33
2018-11-02T06:16:20.916Z,3.17
2018-11-02T06:18:48.982Z,4.40
2018-11-02T06:21:17.040Z,4.70
2018-11-02T06:23:45.090Z,4.90
2018-11-02T06:26:13.139Z,5.23
2018-11-02T06:28:41.199Z,5.10
2018-11-02T06:31:09.390Z,5.50
2018-11-02T06:33:37.561Z,5.00
2018-11-02T06:36:05.723Z,5.20
2018-11-02T06:38:33.826Z,5.17
2018-11-02T06:41:01.828Z,5.70
2018-11-02T06:43:29.891Z,5.20
2018-11-02T06:45:57.932Z,5.33
2018-11-02T06:48:25.990Z,5.30
2018-11-02T06:50:54.132Z,5.47
2018-11-02T06:53:22.119Z,5.20
2018-11-02T06:55:50.174Z,4.97
2018-11-02T06:58:18.218Z,5.37
2018-11-02T07:00:46.301Z,5.57
2018-11-02T07:03:14.328Z,5.30
2018-11-02T07:05:42.403Z,4.73
2018-11-02T07:08:10.647Z,5.53
2018-11-02T07:10:38.495Z,5.23
2018-11-02T07:13:06.552Z,5.90
2018-11-02T07:15:34.610Z,5.40
2018-11-02T07:18:02.658Z,5.63
2018-11-02T07:20:30.761Z,5.27
2018-11-02T07:22:58.895Z,5.83
2018-11-02T07:25:26.945Z,5.73
2018-11-02T07:27:55.004Z,4.83
2018-11-02T07:30:23.058Z,5.73
2018-11-02T07:32:51.147Z,4.93
2018-11-02T07:35:19.250Z,4.90
2018-11-02T07:37:47.306Z,5.00
2018-11-02T07:40:15.362Z,5.27
2018-11-02T07:42:43.419Z,5.60
2018-11-02T07:45:11.463Z,6.20
2018-11-02T07:47:39.580Z,5.83
2018-11-02T07:50:09.422Z,6.10
2018-11-02T07:52:37.619Z,6.97
2018-11-02T07:55:07.471Z,6.73
2018-11-02T07:57:35.535Z,7.23
2018-11-02T08:00:03.667Z,7.00
2018-11-02T08:02:31.742Z,7.73
2018-11-02T08:04:59.875Z,7.03
2018-11-02T08:07:27.923Z,6.73
2018-11-02T08:09:55.979Z,7.20
2018-11-02T08:12:24.032Z,7.23
2018-11-02T08:14:52.086Z,5.87
2018-11-02T08:17:20.162Z,5.90
2018-11-02T08:19:48.223Z,5.33
2018-11-02T08:22:16.306Z,5.80
2018-11-02T08:24:44.359Z,5.67
2018-11-02T08:27:12.435Z,5.07
2018-11-02T08:29:40.571Z,5.93
2018-11-02T08:32:08.705Z,5.50
2018-11-02T08:34:36.759Z,5.77
2018-11-02T08:37:04.983Z,5.40
2018-11-02T08:39:33.047Z,5.03
2018-11-02T08:42:01.090Z,5.43
2018-11-02T08:44:29.153Z,5.40
2018-11-02T08:46:57.195Z,5.80
2018-11-02T08:49:25.247Z,5.40
2018-11-02T08:51:53.312Z,5.60
2018-11-02T08:54:21.466Z,5.73
2018-11-02T08:56:49.602Z,5.03
2018-11-02T08:59:17.844Z,5.70
2018-11-02T09:01:45.830Z,5.50
2018-11-02T09:04:13.990Z,5.50
2018-11-02T09:06:42.042Z,6.10
2018-11-02T09:09:10.747Z,5.80
2018-11-02T09:11:38.903Z,5.57
2018-11-02T09:14:07.206Z,5.70
2018-11-02T09:16:35.254Z,5.20
2018-11-02T09:19:03.346Z,5.40
2018-11-02T09:21:31.464Z,4.80
2018-11-02T09:23:59.483Z,4.60
2018-11-02T09:26:27.620Z,4.80
2018-11-02T09:28:56.242Z,4.87
2018-11-02T09:31:24.559Z,5.17
2018-11-02T09:33:52.706Z,5.57
2018-11-02T09:36:20.793Z,4.60
2018-11-02T09:38:48.939Z,5.60
2018-11-02T09:41:16.995Z,4.70
2018-11-02T09:43:45.056Z,4.73
2018-11-02T09:46:13.142Z,4.13
2018-11-02T09:48:41.211Z,4.80
2018-11-02T09:51:09.266Z,4.20
2018-11-02T09:53:37.310Z,4.93
2018-11-02T09:56:05.353Z,4.47
2018-11-02T09:58:33.438Z,4.50
2018-11-02T10:01:01.435Z,4.67
2018-11-02T10:03:29.505Z,5.13
2018-11-02T10:05:57.549Z,4.60
2018-11-02T10:08:25.667Z,4.93
2018-11-02T10:10:53.639Z,5.03
2018-11-02T10:13:21.699Z,5.27
2018-11-02T10:15:49.743Z,5.40
2018-11-02T10:18:17.801Z,5.70
2018-11-02T10:20:45.866Z,5.93
2018-11-02T10:23:13.932Z,5.53
2018-11-02T10:25:42.002Z,5.57
2018-11-02T10:28:10.103Z,5.67
2018-11-02T10:30:38.098Z,5.73
2018-11-02T10:33:06.164Z,5.57
2018-11-02T10:35:34.286Z,5.57
2018-11-02T10:38:02.563Z,4.13
2018-11-02T10:40:32.138Z,4.27
2018-11-02T10:43:03.884Z,3.90
2018-11-02T10:45:35.015Z,4.13
2018-11-02T10:48:04.270Z,3.90
2018-11-02T10:50:32.326Z,3.27
2018-11-02T10:53:00.383Z,2.90
2018-11-02T10:55:28.578Z,2.87
2018-11-02T10:57:56.623Z,2.73
2018-11-02T11:00:30.173Z,2.40
2018-11-02T11:02:58.231Z,2.80
2018-11-02T11:05:26.344Z,1.80
2018-11-02T11:07:54.350Z,1.80
2018-11-02T11:10:22.397Z,1.50
2018-11-02T11:12:50.634Z,1.97
2018-11-02T11:15:18.490Z,1.80
2018-11-02T11:17:46.558Z,1.97
2018-11-02T11:20:14.804Z,2.00
2018-11-02T11:22:43.172Z,1.60
2018-11-02T11:25:13.087Z,1.60
2018-11-02T11:27:41.271Z,1.63
2018-11-02T11:30:13.562Z,2.00
2018-11-02T11:32:41.664Z,1.87
2018-11-02T11:35:11.058Z,1.87
2018-11-02T11:37:39.543Z,2.20
2018-11-02T11:40:09.693Z,1.80
2018-11-02T11:42:37.754Z,1.57
2018-11-02T11:45:06.910Z,1.60
2018-11-02T11:47:34.957Z,1.60
2018-11-02T11:50:03.691Z,1.40
2018-11-02T11:52:31.759Z,1.80
2018-11-02T11:54:59.827Z,1.70
2018-11-02T11:57:27.870Z,1.83
2018-11-02T11:59:55.923Z,2.10
2018-11-02T12:02:24.006Z,1.93
2018-11-02T12:04:52.189Z,2.03
2018-11-02T12:07:20.272Z,2.23
2018-11-02T12:09:48.445Z,2.50
2018-11-02T12:12:16.539Z,2.03
2018-11-02T12:14:44.622Z,1.77
2018-11-02T12:17:12.701Z,2.10
2018-11-02T12:19:40.906Z,1.83
2018-11-02T12:22:08.966Z,2.10
2018-11-02T12:24:37.115Z,2.20
2018-11-02T12:27:05.199Z,2.20
2018-11-02T12:29:33.359Z,2.60
2018-11-02T12:32:01.501Z,2.07
2018-11-02T12:34:29.542Z,3.00
2018-11-02T12:36:57.631Z,2.60
2018-11-02T12:39:25.645Z,2.70
2018-11-02T12:41:53.718Z,2.10
2018-11-02T12:44:21.770Z,2.00
2018-11-02T12:46:49.831Z,1.83
2018-11-02T12:49:18.254Z,2.00
2018-11-02T12:51:45.942Z,1.90
2018-11-02T12:54:13.999Z,1.90
2018-11-02T12:56:42.058Z,1.50
2018-11-02T12:59:10.127Z,1.87
2018-11-02T13:01:38.203Z,1.70
2018-11-02T13:04:06.390Z,1.73
2018-11-02T13:06:34.527Z,2.30
2018-11-02T13:09:02.634Z,2.20
2018-11-02T13:11:30.687Z,2.60
2018-11-02T13:13:58.779Z,2.20
2018-11-02T13:16:26.831Z,2.20
2018-11-02T13:18:55.050Z,2.20
2018-11-02T13:21:23.074Z,1.63
2018-11-02T13:23:51.123Z,2.10
2018-11-02T13:26:19.327Z,2.10
2018-11-02T13:28:47.270Z,1.83
2018-11-02T13:31:15.335Z,2.10
2018-11-02T13:33:43.370Z,1.73
2018-11-02T13:36:11.450Z,2.10
2018-11-02T13:38:39.494Z,1.90
2018-11-02T13:41:07.571Z,1.87
2018-11-02T13:43:35.767Z,2.10
2018-11-02T13:46:03.796Z,1.97
2018-11-02T13:48:31.863Z,1.93
2018-11-02T13:50:59.931Z,1.77
2018-11-02T13:53:28.020Z,1.83
2018-11-02T13:55:56.067Z,1.93
2018-11-02T13:58:24.138Z,2.03
2018-11-02T14:00:52.226Z,1.90
2018-11-02T14:03:20.306Z,2.30
2018-11-02T14:05:48.370Z,1.90
2018-11-02T14:08:16.423Z,2.00
2018-11-02T14:10:44.495Z,2.07
2018-11-02T14:13:12.560Z,2.00
2018-11-02T14:15:40.654Z,1.90
2018-11-02T14:18:09.286Z,2.20
2018-11-02T14:20:37.339Z,2.00
2018-11-02T14:23:05.382Z,2.10
2018-11-02T14:25:33.442Z,1.90
2018-11-02T14:28:01.511Z,2.07
2018-11-02T14:30:29.568Z,2.00
2018-11-02T14:32:57.624Z,2.07
2018-11-02T14:35:25.695Z,2.07
2018-11-02T14:37:53.837Z,2.43
2018-11-02T14:40:21.895Z,2.43
2018-11-02T14:42:49.954Z,2.17
2018-11-02T14:45:18.011Z,2.40
2018-11-02T14:47:46.563Z,2.43
2018-11-02T14:50:14.618Z,2.47
2018-11-02T14:52:42.699Z,2.60
2018-11-02T14:55:10.894Z,2.40
2018-11-02T14:57:39.368Z,2.80
2018-11-02T15:00:08.854Z,2.70
2018-11-02T15:02:36.898Z,2.13
2018-11-02T15:05:05.219Z,3.30
2018-11-02T15:07:33.274Z,8.67
2018-11-02T15:10:01.319Z,5.33
2018-11-02T15:12:29.378Z,2.80
2018-11-02T15:14:57.455Z,2.73
2018-11-02T15:17:25.495Z,3.00
2018-11-02T15:19:53.556Z,2.57
2018-11-02T15:22:21.619Z,2.77
2018-11-02T15:24:49.751Z,2.53
2018-11-02T15:27:17.802Z,2.80
2018-11-02T15:29:45.846Z,2.87
2018-11-02T15:32:13.955Z,2.80
2018-11-02T15:34:41.984Z,2.93
2018-11-02T15:37:10.039Z,3.07
2018-11-02T15:39:38.087Z,3.13
2018-11-02T15:42:06.130Z,3.10
2018-11-02T15:44:34.256Z,3.10
2018-11-02T15:47:02.235Z,3.10
2018-11-02T15:49:30.286Z,2.60
2018-11-02T15:51:58.394Z,2.70
2018-11-02T15:54:26.462Z,2.67
2018-11-02T15:56:54.511Z,2.83
2018-11-02T15:59:22.566Z,2.70
2018-11-02T16:01:50.606Z,2.90
2018-11-02T16:04:18.650Z,2.90
2018-11-02T16:06:46.769Z,2.70
2018-11-02T16:09:15.831Z,2.97
2018-11-02T16:11:44.727Z,2.73
2018-11-02T16:14:12.990Z,2.40
2018-11-02T16:16:41.008Z,2.73
2018-11-02T16:19:09.067Z,3.70
2018-11-02T16:21:37.761Z,3.27
2018-11-02T16:24:06.191Z,3.13
2018-11-02T16:26:34.243Z,3.23
2018-11-02T16:29:02.422Z,6.30
2018-11-02T16:31:30.472Z,4.60
2018-11-02T16:33:58.698Z,6.23
2018-11-02T16:36:26.691Z,14.10
2018-11-02T16:38:54.758Z,18.80
2018-11-02T16:41:22.826Z,22.13
2018-11-02T16:43:50.918Z,17.60
2018-11-02T16:46:19.094Z,10.10
2018-11-02T16:48:47.170Z,9.60
2018-11-02T16:51:15.247Z,7.23
2018-11-02T16:53:43.331Z,24.93
2018-11-02T16:56:11.406Z,7.50
2018-11-02T16:58:39.467Z,6.00
2018-11-02T17:01:07.548Z,5.00
2018-11-02T17:03:35.759Z,4.50
2018-11-02T17:06:03.968Z,3.80
2018-11-02T17:08:32.030Z,4.67
2018-11-02T17:11:00.098Z,4.87
2018-11-02T17:13:28.199Z,6.07
2018-11-02T17:15:56.274Z,6.50
2018-11-02T17:18:25.290Z,5.90
2018-11-02T17:20:53.251Z,4.00
2018-11-02T17:23:21.312Z,3.87
2018-11-02T17:25:49.400Z,3.87
2018-11-02T17:28:17.451Z,4.10
2018-11-02T17:30:45.527Z,3.37
2018-11-02T17:33:13.604Z,73.27
2018-11-02T17:35:41.677Z,36.57
2018-11-02T17:38:09.730Z,22.10
2018-11-02T17:40:37.837Z,10.27
2018-11-02T17:43:05.866Z,5.70
2018-11-02T17:45:33.922Z,4.80
2018-11-02T17:48:02.012Z,6.03
2018-11-02T17:50:30.091Z,5.63
2018-11-02T17:52:58.182Z,5.40
2018-11-02T17:55:26.374Z,4.97
2018-11-02T17:57:54.448Z,4.87
2018-11-02T18:00:22.507Z,4.60
2018-11-02T18:02:50.662Z,4.87
2018-11-02T18:05:18.711Z,4.60
2018-11-02T18:07:46.767Z,4.70
2018-11-02T18:10:14.859Z,4.60
2018-11-02T18:12:42.943Z,4.50
2018-11-02T18:15:11.983Z,4.83
2018-11-02T18:17:40.111Z,4.83
2018-11-02T18:20:10.266Z,6.10
2018-11-02T18:22:38.351Z,5.80
2018-11-02T18:25:06.632Z,5.47
2018-11-02T18:27:34.830Z,6.40
2018-11-02T18:30:03.006Z,5.60
2018-11-02T18:32:31.071Z,4.20
2018-11-02T18:34:59.347Z,5.10
2018-11-02T18:37:27.319Z,5.53
2018-11-02T18:39:55.443Z,4.70
2018-11-02T18:42:23.565Z,4.93
2018-11-02T18:44:51.683Z,5.67
2018-11-02T18:47:19.783Z,4.63
2018-11-02T18:49:47.802Z,4.30
2018-11-02T18:52:15.860Z,4.87
2018-11-02T18:54:43.923Z,4.70
2018-11-02T18:57:11.996Z,5.60
2018-11-02T18:59:40.047Z,4.97
2018-11-02T19:02:08.119Z,5.57
2018-11-02T19:04:36.186Z,6.13
2018-11-02T19:07:04.253Z,5.40
2018-11-02T19:09:32.380Z,5.50
2018-11-02T19:12:00.487Z,5.17
2018-11-02T19:14:28.554Z,5.50
2018-11-02T19:16:56.626Z,5.70
2018-11-02T19:19:24.682Z,5.50
2018-11-02T19:21:52.754Z,5.20
2018-11-02T19:24:20.814Z,5.57
2018-11-02T19:26:48.928Z,5.70
2018-11-02T19:29:16.983Z,5.77
2018-11-02T19:31:45.082Z,6.03
2018-11-02T19:34:13.800Z,5.80
2018-11-02T19:36:41.814Z,5.97
2018-11-02T19:39:10.446Z,6.67
2018-11-02T19:41:38.596Z,6.60
2018-11-02T19:44:06.706Z,6.07
2018-11-02T19:46:34.738Z,6.37
2018-11-02T19:49:02.865Z,6.53
2018-11-02T19:51:30.978Z,6.87
2018-11-02T19:53:59.150Z,6.57
2018-11-02T19:56:27.208Z,7.30
2018-11-02T19:58:55.261Z,7.03
2018-11-02T20:01:23.330Z,6.07
2018-11-02T20:03:51.423Z,6.30
2018-11-02T20:06:19.498Z,6.77
2018-11-02T20:08:47.679Z,6.50
2018-11-02T20:11:15.738Z,6.97
2018-11-02T20:13:43.820Z,7.10
2018-11-02T20:16:11.895Z,7.23
2018-11-02T20:18:39.963Z,6.93
2018-11-02T20:21:08.051Z,7.23
2018-11-02T20:23:36.091Z,7.83
2018-11-02T20:26:04.156Z,7.53
2018-11-02T20:28:32.218Z,7.37
2018-11-02T20:31:00.266Z,7.20
2018-11-02T20:33:28.331Z,7.10
2018-11-02T20:35:56.411Z,7.50
2018-11-02T20:38:24.531Z,7.87
2018-11-02T20:40:52.590Z,7.80
2018-11-02T20:43:20.686Z,7.40
2018-11-02T20:45:48.739Z,7.40
2018-11-02T20:48:16.911Z,7.47
2018-11-02T20:50:44.951Z,7.97
2018-11-02T20:53:13.034Z,8.17
2018-11-02T20:55:41.119Z,8.60
2018-11-02T20:58:09.188Z,7.93
2018-11-02T21:00:37.266Z,8.27
2018-11-02T21:03:05.586Z,7.53
2018-11-02T21:05:33.642Z,7.10
2018-11-02T21:08:01.798Z,6.90
2018-11-02T21:10:29.786Z,6.47
2018-11-02T21:12:57.877Z,6.90
2018-11-02T21:15:25.975Z,6.60
2018-11-02T21:17:54.419Z,6.40
2018-11-02T21:20:23.722Z,6.23
2018-11-02T21:22:51.793Z,6.50
2018-11-02T21:25:19.851Z,6.73
2018-11-02T21:27:48.443Z,7.37
2018-11-02T21:30:18.770Z,7.97
2018-11-02T21:32:47.687Z,7.80
2018-11-02T21:35:16.447Z,8.40
2018-11-02T21:37:44.796Z,7.63
2018-11-02T21:40:14.074Z,7.27
2018-11-02T21:42:42.615Z,7.90
2018-11-02T21:45:11.413Z,7.70
2018-11-02T21:47:39.694Z,8.03
2018-11-02T21:50:08.472Z,7.87
2018-11-02T21:52:36.531Z,8.10
2018-11-02T21:55:04.984Z,7.73
2018-11-02T21:57:33.311Z,8.70
2018-11-02T22:00:01.379Z,7.87
2018-11-02T22:02:29.603Z,7.37
2018-11-02T22:04:57.786Z,8.27
2018-11-02T22:07:25.930Z,8.40
2018-11-02T22:09:53.986Z,8.03
2018-11-02T22:12:22.063Z,8.50
2018-11-02T22:14:50.169Z,7.80
2018-11-02T22:17:18.218Z,8.00
2018-11-02T22:19:46.295Z,7.50
2018-11-02T22:22:14.370Z,8.13
2018-11-02T22:24:42.511Z,8.03
2018-11-02T22:27:10.672Z,8.07
2018-11-02T22:29:38.691Z,8.73
2018-11-02T22:32:06.734Z,9.30
2018-11-02T22:34:34.844Z,8.63
2018-11-02T22:37:02.907Z,9.23
2018-11-02T22:39:30.962Z,9.70
2018-11-02T22:41:59.031Z,16.90
2018-11-02T22:44:27.095Z,19.00
2018-11-02T22:46:55.163Z,11.47
2018-11-02T22:49:23.243Z,10.77
2018-11-02T22:51:51.315Z,10.40
2018-11-02T22:54:19.387Z,10.43
2018-11-02T22:56:47.456Z,10.73
2018-11-02T22:59:15.513Z,9.53
2018-11-02T23:01:43.591Z,8.73
2018-11-02T23:04:11.630Z,9.77
2018-11-02T23:06:39.786Z,9.87
2018-11-02T23:09:08.834Z,9.80
2018-11-02T23:11:37.070Z,9.53
2018-11-02T23:14:05.934Z,8.53
2018-11-02T23:16:34.030Z,9.03
2018-11-02T23:19:02.146Z,9.30
2018-11-02T23:21:30.195Z,8.60
2018-11-02T23:23:58.226Z,8.23
2018-11-02T23:26:26.310Z,8.57
2018-11-02T23:28:54.351Z,8.57
2018-11-02T23:31:22.400Z,8.43
2018-11-02T23:33:50.468Z,8.03
2018-11-02T23:36:18.586Z,8.70
2018-11-02T23:38:46.638Z,8.47
2018-11-02T23:41:14.715Z,8.70
2018-11-02T23:43:42.754Z,9.03
2018-11-02T23:46:10.823Z,8.93
2018-11-02T23:48:38.886Z,9.10
2018-11-02T23:51:06.938Z,9.83
2018-11-02T23:53:35.013Z,10.00
2018-11-02T23:56:03.103Z,10.77
2018-11-02T23:58:31.176Z,10.17
